sensor_id;sensor_type;location;lat;lon;timestamp;P1;durP1;ratioP1;P2;durP2;ratioP2
75096;SDS011;63684;47.964;11.186;2022-12-24T00:02:16;0.83;;;0.50;;
75096;SDS011;63684;47.964;11.186;2022-12-24T00:04:42;0.83;;;0.47;;
75096;SDS011;63684;47.964;11.186;2022-12-24T00:07:07;0.27;;;0.27;;
75096;SDS011;63684;47.964;11.186;2022-12-24T00:09:32;3.80;;;0.70;;
75096;SDS011;63684;47.964;11.186;2022-12-24T00:11:58;0.40;;;0.40;;
75096;SDS011;63684;47.964;11.186;2022-12-24T00:14:23;1.30;;;0.50;;
75096;SDS011;63684;47.964;11.186;2022-12-24T00:16:49;2.43;;;0.60;;
75096;SDS011;63684;47.964;11.186;2022-12-24T00:19:15;0.90;;;0.50;;
75096;SDS011;63684;47.964;11.186;2022-12-24T00:21:40;0.40;;;0.40;;
75096;SDS011;63684;47.964;11.186;2022-12-24T00:24:05;0.40;;;0.40;;
75096;SDS011;63684;47.964;11.186;2022-12-24T00:26:31;0.47;;;0.40;;
75096;SDS011;63684;47.964;11.186;2022-12-24T00:28:57;2.03;;;0.50;;
75096;SDS011;63684;47.964;11.186;2022-12-24T00:31:23;0.40;;;0.40;;
75096;SDS011;63684;47.964;11.186;2022-12-24T00:33:48;0.97;;;0.40;;
75096;SDS011;63684;47.964;11.186;2022-12-24T00:36:14;0.80;;;0.57;;
75096;SDS011;63684;47.964;11.186;2022-12-24T00:38:40;0.60;;;0.50;;
75096;SDS011;63684;47.964;11.186;2022-12-24T00:41:07;0.70;;;0.60;;
75096;SDS011;63684;47.964;11.186;2022-12-24T00:44:01;1.30;;;0.60;;
75096;SDS011;63684;47.964;11.186;2022-12-24T00:46:33;6.03;;;0.77;;
75096;SDS011;63684;47.964;11.186;2022-12-24T00:48:59;1.33;;;0.70;;
75096;SDS011;63684;47.964;11.186;2022-12-24T00:51:25;0.53;;;0.50;;
75096;SDS011;63684;47.964;11.186;2022-12-24T00:53:51;1.83;;;0.60;;
75096;SDS011;63684;47.964;11.186;2022-12-24T00:56:17;2.20;;;0.80;;
75096;SDS011;63684;47.964;11.186;2022-12-24T00:58:42;0.73;;;0.50;;
75096;SDS011;63684;47.964;11.186;2022-12-24T01:01:08;1.63;;;0.53;;
75096;SDS011;63684;47.964;11.186;2022-12-24T01:03:34;0.60;;;0.50;;
75096;SDS011;63684;47.964;11.186;2022-12-24T01:06:03;1.10;;;0.70;;
75096;SDS011;63684;47.964;11.186;2022-12-24T01:08:34;2.23;;;0.70;;
75096;SDS011;63684;47.964;11.186;2022-12-24T01:11:00;1.17;;;0.53;;
75096;SDS011;63684;47.964;11.186;2022-12-24T01:13:26;1.27;;;0.47;;
75096;SDS011;63684;47.964;11.186;2022-12-24T01:15:52;1.50;;;0.63;;
75096;SDS011;63684;47.964;11.186;2022-12-24T01:18:18;2.20;;;0.80;;
75096;SDS011;63684;47.964;11.186;2022-12-24T01:20:43;0.93;;;0.60;;
75096;SDS011;63684;47.964;11.186;2022-12-24T01:23:09;1.30;;;0.57;;
75096;SDS011;63684;47.964;11.186;2022-12-24T01:25:36;0.87;;;0.67;;
75096;SDS011;63684;47.964;11.186;2022-12-24T01:28:02;1.37;;;0.80;;
75096;SDS011;63684;47.964;11.186;2022-12-24T01:30:28;1.30;;;0.70;;
75096;SDS011;63684;47.964;11.186;2022-12-24T01:32:53;5.43;;;0.70;;
75096;SDS011;63684;47.964;11.186;2022-12-24T01:35:19;1.33;;;0.77;;
75096;SDS011;63684;47.964;11.186;2022-12-24T01:37:44;1.73;;;0.70;;
75096;SDS011;63684;47.964;11.186;2022-12-24T01:40:12;0.83;;;0.60;;
75096;SDS011;63684;47.964;11.186;2022-12-24T01:42:57;0.60;;;0.60;;
75096;SDS011;63684;47.964;11.186;2022-12-24T01:45:44;0.97;;;0.87;;
75096;SDS011;63684;47.964;11.186;2022-12-24T01:48:12;1.13;;;0.83;;
75096;SDS011;63684;47.964;11.186;2022-12-24T01:50:38;2.10;;;0.70;;
75096;SDS011;63684;47.964;11.186;2022-12-24T01:53:04;1.50;;;1.00;;
75096;SDS011;63684;47.964;11.186;2022-12-24T01:55:30;0.57;;;0.57;;
75096;SDS011;63684;47.964;11.186;2022-12-24T01:57:56;0.97;;;0.60;;
75096;SDS011;63684;47.964;11.186;2022-12-24T02:00:23;1.27;;;0.70;;
75096;SDS011;63684;47.964;11.186;2022-12-24T02:02:49;2.67;;;0.73;;
75096;SDS011;63684;47.964;11.186;2022-12-24T02:07:51;0.80;;;0.53;;
75096;SDS011;63684;47.964;11.186;2022-12-24T02:10:17;1.77;;;0.90;;
75096;SDS011;63684;47.964;11.186;2022-12-24T02:12:43;0.97;;;0.50;;
75096;SDS011;63684;47.964;11.186;2022-12-24T02:15:10;1.70;;;0.80;;
75096;SDS011;63684;47.964;11.186;2022-12-24T02:17:54;1.83;;;0.80;;
75096;SDS011;63684;47.964;11.186;2022-12-24T02:37:27;4.20;;;0.90;;
75096;SDS011;63684;47.964;11.186;2022-12-24T02:39:56;1.40;;;0.80;;
75096;SDS011;63684;47.964;11.186;2022-12-24T02:42:31;1.50;;;0.70;;
75096;SDS011;63684;47.964;11.186;2022-12-24T02:45:03;1.77;;;0.50;;
75096;SDS011;63684;47.964;11.186;2022-12-24T02:47:31;1.47;;;0.70;;
75096;SDS011;63684;47.964;11.186;2022-12-24T02:49:59;1.50;;;0.50;;
75096;SDS011;63684;47.964;11.186;2022-12-24T02:55:00;0.60;;;0.60;;
75096;SDS011;63684;47.964;11.186;2022-12-24T02:57:33;0.33;;;0.33;;
75096;SDS011;63684;47.964;11.186;2022-12-24T03:00:18;1.50;;;0.50;;
75096;SDS011;63684;47.964;11.186;2022-12-24T03:05:47;0.80;;;0.60;;
75096;SDS011;63684;47.964;11.186;2022-12-24T03:11:07;0.93;;;0.50;;
75096;SDS011;63684;47.964;11.186;2022-12-24T03:13:34;0.50;;;0.50;;
75096;SDS011;63684;47.964;11.186;2022-12-24T03:16:01;0.80;;;0.70;;
75096;SDS011;63684;47.964;11.186;2022-12-24T03:18:29;3.17;;;0.90;;
75096;SDS011;63684;47.964;11.186;2022-12-24T03:20:56;0.90;;;0.43;;
75096;SDS011;63684;47.964;11.186;2022-12-24T03:23:23;1.37;;;0.67;;
75096;SDS011;63684;47.964;11.186;2022-12-24T03:25:48;1.70;;;0.70;;
75096;SDS011;63684;47.964;11.186;2022-12-24T03:28:14;1.83;;;0.70;;
75096;SDS011;63684;47.964;11.186;2022-12-24T03:30:42;0.60;;;0.60;;
75096;SDS011;63684;47.964;11.186;2022-12-24T03:33:09;0.87;;;0.87;;
75096;SDS011;63684;47.964;11.186;2022-12-24T03:35:35;1.90;;;0.77;;
75096;SDS011;63684;47.964;11.186;2022-12-24T03:38:01;2.33;;;0.70;;
75096;SDS011;63684;47.964;11.186;2022-12-24T03:40:26;1.33;;;0.60;;
75096;SDS011;63684;47.964;11.186;2022-12-24T03:42:52;0.93;;;0.60;;
75096;SDS011;63684;47.964;11.186;2022-12-24T03:45:17;1.10;;;0.70;;
75096;SDS011;63684;47.964;11.186;2022-12-24T03:47:43;2.13;;;0.50;;
75096;SDS011;63684;47.964;11.186;2022-12-24T03:50:08;0.50;;;0.50;;
75096;SDS011;63684;47.964;11.186;2022-12-24T03:52:34;2.80;;;0.60;;
75096;SDS011;63684;47.964;11.186;2022-12-24T03:54:59;1.50;;;0.87;;
75096;SDS011;63684;47.964;11.186;2022-12-24T03:57:25;1.03;;;0.60;;
75096;SDS011;63684;47.964;11.186;2022-12-24T03:59:50;2.63;;;0.77;;
75096;SDS011;63684;47.964;11.186;2022-12-24T04:02:16;1.63;;;0.83;;
75096;SDS011;63684;47.964;11.186;2022-12-24T04:04:41;0.43;;;0.43;;
75096;SDS011;63684;47.964;11.186;2022-12-24T04:07:07;0.80;;;0.50;;
75096;SDS011;63684;47.964;11.186;2022-12-24T04:09:32;2.43;;;0.60;;
75096;SDS011;63684;47.964;11.186;2022-12-24T04:11:58;0.90;;;0.73;;
75096;SDS011;63684;47.964;11.186;2022-12-24T04:14:23;0.50;;;0.50;;
75096;SDS011;63684;47.964;11.186;2022-12-24T04:16:49;2.30;;;0.73;;
75096;SDS011;63684;47.964;11.186;2022-12-24T04:19:14;2.30;;;0.70;;
75096;SDS011;63684;47.964;11.186;2022-12-24T04:21:40;1.60;;;0.70;;
75096;SDS011;63684;47.964;11.186;2022-12-24T04:24:05;1.37;;;0.73;;
75096;SDS011;63684;47.964;11.186;2022-12-24T04:26:31;1.03;;;0.50;;
75096;SDS011;63684;47.964;11.186;2022-12-24T04:28:57;2.03;;;0.67;;
75096;SDS011;63684;47.964;11.186;2022-12-24T04:31:22;0.60;;;0.50;;
75096;SDS011;63684;47.964;11.186;2022-12-24T04:33:49;1.80;;;0.60;;
75096;SDS011;63684;47.964;11.186;2022-12-24T04:36:16;0.50;;;0.50;;
75096;SDS011;63684;47.964;11.186;2022-12-24T04:38:42;6.20;;;0.73;;
75096;SDS011;63684;47.964;11.186;2022-12-24T04:41:15;2.10;;;1.20;;
75096;SDS011;63684;47.964;11.186;2022-12-24T04:43:42;1.67;;;0.93;;
75096;SDS011;63684;47.964;11.186;2022-12-24T04:46:29;1.17;;;0.40;;
75096;SDS011;63684;47.964;11.186;2022-12-24T04:48:55;1.57;;;0.80;;
75096;SDS011;63684;47.964;11.186;2022-12-24T04:51:21;2.03;;;0.70;;
75096;SDS011;63684;47.964;11.186;2022-12-24T04:53:47;1.13;;;0.70;;
75096;SDS011;63684;47.964;11.186;2022-12-24T04:56:14;1.37;;;0.60;;
75096;SDS011;63684;47.964;11.186;2022-12-24T04:58:41;2.53;;;0.73;;
75096;SDS011;63684;47.964;11.186;2022-12-24T05:01:07;1.70;;;0.63;;
75096;SDS011;63684;47.964;11.186;2022-12-24T05:03:34;2.27;;;0.80;;
75096;SDS011;63684;47.964;11.186;2022-12-24T05:06:00;1.60;;;0.60;;
75096;SDS011;63684;47.964;11.186;2022-12-24T05:08:26;1.23;;;0.83;;
75096;SDS011;63684;47.964;11.186;2022-12-24T05:10:55;4.13;;;1.47;;
75096;SDS011;63684;47.964;11.186;2022-12-24T05:13:21;4.20;;;0.80;;
75096;SDS011;63684;47.964;11.186;2022-12-24T05:15:47;4.07;;;0.80;;
75096;SDS011;63684;47.964;11.186;2022-12-24T05:18:12;1.70;;;0.80;;
75096;SDS011;63684;47.964;11.186;2022-12-24T05:20:39;2.47;;;0.90;;
75096;SDS011;63684;47.964;11.186;2022-12-24T05:23:05;1.27;;;0.67;;
75096;SDS011;63684;47.964;11.186;2022-12-24T05:25:49;1.43;;;0.77;;
75096;SDS011;63684;47.964;11.186;2022-12-24T05:28:33;0.20;;;0.20;;
75096;SDS011;63684;47.964;11.186;2022-12-24T05:30:58;2.10;;;0.50;;
75096;SDS011;63684;47.964;11.186;2022-12-24T05:33:24;1.33;;;0.50;;
75096;SDS011;63684;47.964;11.186;2022-12-24T05:35:50;1.27;;;0.37;;
75096;SDS011;63684;47.964;11.186;2022-12-24T05:38:16;1.03;;;0.60;;
75096;SDS011;63684;47.964;11.186;2022-12-24T05:40:41;0.70;;;0.50;;
75096;SDS011;63684;47.964;11.186;2022-12-24T05:43:07;0.53;;;0.53;;
75096;SDS011;63684;47.964;11.186;2022-12-24T05:45:32;0.67;;;0.40;;
75096;SDS011;63684;47.964;11.186;2022-12-24T05:47:58;1.00;;;0.50;;
75096;SDS011;63684;47.964;11.186;2022-12-24T05:50:23;0.87;;;0.40;;
75096;SDS011;63684;47.964;11.186;2022-12-24T05:53:03;1.13;;;0.50;;
75096;SDS011;63684;47.964;11.186;2022-12-24T05:55:28;0.40;;;0.40;;
75096;SDS011;63684;47.964;11.186;2022-12-24T05:57:53;1.37;;;0.40;;
75096;SDS011;63684;47.964;11.186;2022-12-24T06:00:19;0.70;;;0.50;;
75096;SDS011;63684;47.964;11.186;2022-12-24T06:02:45;1.33;;;0.37;;
75096;SDS011;63684;47.964;11.186;2022-12-24T06:05:10;1.00;;;0.50;;
75096;SDS011;63684;47.964;11.186;2022-12-24T06:07:35;0.50;;;0.40;;
75096;SDS011;63684;47.964;11.186;2022-12-24T06:10:01;0.70;;;0.40;;
75096;SDS011;63684;47.964;11.186;2022-12-24T06:12:26;1.00;;;0.90;;
75096;SDS011;63684;47.964;11.186;2022-12-24T06:14:52;0.93;;;0.50;;
75096;SDS011;63684;47.964;11.186;2022-12-24T06:17:17;0.63;;;0.60;;
75096;SDS011;63684;47.964;11.186;2022-12-24T06:19:42;1.00;;;0.40;;
75096;SDS011;63684;47.964;11.186;2022-12-24T06:22:08;0.43;;;0.40;;
75096;SDS011;63684;47.964;11.186;2022-12-24T06:24:33;0.33;;;0.30;;
75096;SDS011;63684;47.964;11.186;2022-12-24T06:26:59;1.50;;;0.50;;
75096;SDS011;63684;47.964;11.186;2022-12-24T06:29:24;0.93;;;0.50;;
75096;SDS011;63684;47.964;11.186;2022-12-24T06:31:50;0.30;;;0.30;;
75096;SDS011;63684;47.964;11.186;2022-12-24T06:34:16;0.73;;;0.50;;
75096;SDS011;63684;47.964;11.186;2022-12-24T06:36:41;0.63;;;0.60;;
75096;SDS011;63684;47.964;11.186;2022-12-24T06:39:06;0.70;;;0.50;;
75096;SDS011;63684;47.964;11.186;2022-12-24T06:41:32;0.40;;;0.40;;
75096;SDS011;63684;47.964;11.186;2022-12-24T06:43:57;0.50;;;0.30;;
75096;SDS011;63684;47.964;11.186;2022-12-24T06:46:23;0.73;;;0.40;;
75096;SDS011;63684;47.964;11.186;2022-12-24T06:48:49;0.73;;;0.60;;
75096;SDS011;63684;47.964;11.186;2022-12-24T06:51:15;1.23;;;0.50;;
75096;SDS011;63684;47.964;11.186;2022-12-24T06:53:43;0.53;;;0.43;;
75096;SDS011;63684;47.964;11.186;2022-12-24T06:56:10;0.40;;;0.40;;
75096;SDS011;63684;47.964;11.186;2022-12-24T06:58:37;0.50;;;0.50;;
75096;SDS011;63684;47.964;11.186;2022-12-24T07:01:04;2.90;;;0.43;;
75096;SDS011;63684;47.964;11.186;2022-12-24T07:03:30;1.27;;;0.60;;
75096;SDS011;63684;47.964;11.186;2022-12-24T07:05:56;0.40;;;0.40;;
75096;SDS011;63684;47.964;11.186;2022-12-24T07:08:22;0.60;;;0.53;;
75096;SDS011;63684;47.964;11.186;2022-12-24T07:10:48;0.43;;;0.43;;
75096;SDS011;63684;47.964;11.186;2022-12-24T07:13:14;0.67;;;0.50;;
75096;SDS011;63684;47.964;11.186;2022-12-24T07:15:40;0.60;;;0.43;;
75096;SDS011;63684;47.964;11.186;2022-12-24T07:18:05;0.50;;;0.50;;
75096;SDS011;63684;47.964;11.186;2022-12-24T07:20:31;1.43;;;1.00;;
75096;SDS011;63684;47.964;11.186;2022-12-24T07:22:56;0.77;;;0.63;;
75096;SDS011;63684;47.964;11.186;2022-12-24T07:25:22;0.80;;;0.60;;
75096;SDS011;63684;47.964;11.186;2022-12-24T07:27:47;1.83;;;1.23;;
75096;SDS011;63684;47.964;11.186;2022-12-24T07:30:12;1.57;;;1.17;;
75096;SDS011;63684;47.964;11.186;2022-12-24T07:32:38;0.43;;;0.33;;
75096;SDS011;63684;47.964;11.186;2022-12-24T07:35:04;2.20;;;1.10;;
75096;SDS011;63684;47.964;11.186;2022-12-24T07:37:29;0.80;;;0.53;;
75096;SDS011;63684;47.964;11.186;2022-12-24T07:39:55;2.40;;;0.97;;
75096;SDS011;63684;47.964;11.186;2022-12-24T07:42:20;2.33;;;0.67;;
75096;SDS011;63684;47.964;11.186;2022-12-24T07:44:46;0.87;;;0.60;;
75096;SDS011;63684;47.964;11.186;2022-12-24T07:47:11;0.50;;;0.50;;
75096;SDS011;63684;47.964;11.186;2022-12-24T07:49:37;0.83;;;0.43;;
75096;SDS011;63684;47.964;11.186;2022-12-24T07:52:02;0.40;;;0.40;;
75096;SDS011;63684;47.964;11.186;2022-12-24T07:54:28;3.33;;;0.83;;
75096;SDS011;63684;47.964;11.186;2022-12-24T07:56:53;0.87;;;0.67;;
75096;SDS011;63684;47.964;11.186;2022-12-24T07:59:19;0.80;;;0.70;;
75096;SDS011;63684;47.964;11.186;2022-12-24T08:01:45;1.10;;;0.53;;
75096;SDS011;63684;47.964;11.186;2022-12-24T08:04:10;0.50;;;0.30;;
75096;SDS011;63684;47.964;11.186;2022-12-24T08:06:36;1.10;;;0.80;;
75096;SDS011;63684;47.964;11.186;2022-12-24T08:09:01;0.30;;;0.30;;
75096;SDS011;63684;47.964;11.186;2022-12-24T08:11:27;0.97;;;0.60;;
75096;SDS011;63684;47.964;11.186;2022-12-24T08:13:52;1.00;;;0.40;;
75096;SDS011;63684;47.964;11.186;2022-12-24T08:16:18;0.77;;;0.60;;
75096;SDS011;63684;47.964;11.186;2022-12-24T08:18:43;1.40;;;0.40;;
75096;SDS011;63684;47.964;11.186;2022-12-24T08:21:08;1.73;;;0.57;;
75096;SDS011;63684;47.964;11.186;2022-12-24T08:23:34;0.67;;;0.40;;
75096;SDS011;63684;47.964;11.186;2022-12-24T08:26:00;0.63;;;0.50;;
75096;SDS011;63684;47.964;11.186;2022-12-24T08:28:26;1.23;;;0.80;;
75096;SDS011;63684;47.964;11.186;2022-12-24T08:30:51;0.40;;;0.40;;
75096;SDS011;63684;47.964;11.186;2022-12-24T08:33:17;1.90;;;0.50;;
75096;SDS011;63684;47.964;11.186;2022-12-24T08:35:46;1.80;;;0.50;;
75096;SDS011;63684;47.964;11.186;2022-12-24T08:38:13;1.60;;;0.70;;
75096;SDS011;63684;47.964;11.186;2022-12-24T08:40:38;1.43;;;0.70;;
75096;SDS011;63684;47.964;11.186;2022-12-24T08:43:03;0.90;;;0.80;;
75096;SDS011;63684;47.964;11.186;2022-12-24T08:45:29;1.87;;;0.90;;
75096;SDS011;63684;47.964;11.186;2022-12-24T08:47:54;1.13;;;0.70;;
75096;SDS011;63684;47.964;11.186;2022-12-24T08:50:20;1.03;;;0.50;;
75096;SDS011;63684;47.964;11.186;2022-12-24T08:52:45;0.80;;;0.40;;
75096;SDS011;63684;47.964;11.186;2022-12-24T08:55:10;1.00;;;0.50;;
75096;SDS011;63684;47.964;11.186;2022-12-24T08:57:36;2.93;;;1.07;;
75096;SDS011;63684;47.964;11.186;2022-12-24T09:00:02;3.27;;;1.73;;
75096;SDS011;63684;47.964;11.186;2022-12-24T09:02:31;2.77;;;1.40;;
75096;SDS011;63684;47.964;11.186;2022-12-24T09:04:57;2.50;;;0.87;;
75096;SDS011;63684;47.964;11.186;2022-12-24T09:07:22;0.63;;;0.50;;
75096;SDS011;63684;47.964;11.186;2022-12-24T09:09:48;0.80;;;0.47;;
75096;SDS011;63684;47.964;11.186;2022-12-24T09:12:13;2.33;;;0.70;;
75096;SDS011;63684;47.964;11.186;2022-12-24T09:14:39;0.57;;;0.50;;
75096;SDS011;63684;47.964;11.186;2022-12-24T09:17:04;6.90;;;2.90;;
75096;SDS011;63684;47.964;11.186;2022-12-24T09:19:31;0.80;;;0.57;;
75096;SDS011;63684;47.964;11.186;2022-12-24T09:21:57;0.80;;;0.60;;
75096;SDS011;63684;47.964;11.186;2022-12-24T09:24:22;2.07;;;1.00;;
75096;SDS011;63684;47.964;11.186;2022-12-24T09:26:48;1.17;;;0.50;;
75096;SDS011;63684;47.964;11.186;2022-12-24T09:29:14;1.80;;;0.50;;
75096;SDS011;63684;47.964;11.186;2022-12-24T09:31:40;1.43;;;0.70;;
75096;SDS011;63684;47.964;11.186;2022-12-24T09:34:05;0.50;;;0.50;;
75096;SDS011;63684;47.964;11.186;2022-12-24T09:36:31;1.50;;;0.70;;
75096;SDS011;63684;47.964;11.186;2022-12-24T09:38:57;0.70;;;0.40;;
75096;SDS011;63684;47.964;11.186;2022-12-24T09:44:07;0.97;;;0.50;;
75096;SDS011;63684;47.964;11.186;2022-12-24T09:46:41;0.73;;;0.40;;
75096;SDS011;63684;47.964;11.186;2022-12-24T09:49:09;1.70;;;0.77;;
75096;SDS011;63684;47.964;11.186;2022-12-24T09:51:43;1.27;;;0.83;;
75096;SDS011;63684;47.964;11.186;2022-12-24T09:56:50;0.87;;;0.60;;
75096;SDS011;63684;47.964;11.186;2022-12-24T10:01:42;0.77;;;0.60;;
75096;SDS011;63684;47.964;11.186;2022-12-24T10:04:17;0.53;;;0.40;;
75096;SDS011;63684;47.964;11.186;2022-12-24T10:22:33;1.93;;;0.60;;
75096;SDS011;63684;47.964;11.186;2022-12-24T10:25:16;0.63;;;0.40;;
75096;SDS011;63684;47.964;11.186;2022-12-24T10:27:46;1.70;;;0.50;;
75096;SDS011;63684;47.964;11.186;2022-12-24T10:30:12;1.27;;;0.40;;
75096;SDS011;63684;47.964;11.186;2022-12-24T10:32:39;1.07;;;0.50;;
75096;SDS011;63684;47.964;11.186;2022-12-24T10:37:43;1.23;;;0.70;;
75096;SDS011;63684;47.964;11.186;2022-12-24T10:40:13;5.00;;;3.67;;
75096;SDS011;63684;47.964;11.186;2022-12-24T10:42:41;6.17;;;4.50;;
75096;SDS011;63684;47.964;11.186;2022-12-24T10:45:13;2.00;;;1.53;;
75096;SDS011;63684;47.964;11.186;2022-12-24T10:47:42;1.80;;;0.87;;
75096;SDS011;63684;47.964;11.186;2022-12-24T10:53:00;1.40;;;0.80;;
75096;SDS011;63684;47.964;11.186;2022-12-24T10:55:31;0.83;;;0.50;;
75096;SDS011;63684;47.964;11.186;2022-12-24T10:57:58;1.40;;;0.67;;
75096;SDS011;63684;47.964;11.186;2022-12-24T11:00:25;0.50;;;0.33;;
75096;SDS011;63684;47.964;11.186;2022-12-24T11:03:04;1.23;;;0.70;;
75096;SDS011;63684;47.964;11.186;2022-12-24T11:05:31;2.23;;;0.80;;
75096;SDS011;63684;47.964;11.186;2022-12-24T11:08:01;1.03;;;0.90;;
75096;SDS011;63684;47.964;11.186;2022-12-24T11:10:28;1.50;;;1.00;;
75096;SDS011;63684;47.964;11.186;2022-12-24T11:12:55;3.33;;;0.93;;
75096;SDS011;63684;47.964;11.186;2022-12-24T11:15:28;1.03;;;0.90;;
75096;SDS011;63684;47.964;11.186;2022-12-24T11:18:05;1.50;;;1.00;;
75096;SDS011;63684;47.964;11.186;2022-12-24T11:20:37;3.03;;;2.00;;
75096;SDS011;63684;47.964;11.186;2022-12-24T11:23:03;1.20;;;0.73;;
75096;SDS011;63684;47.964;11.186;2022-12-24T11:25:32;4.53;;;3.13;;
75096;SDS011;63684;47.964;11.186;2022-12-24T11:31:02;1.97;;;1.17;;
75096;SDS011;63684;47.964;11.186;2022-12-24T11:33:29;7.03;;;3.50;;
75096;SDS011;63684;47.964;11.186;2022-12-24T11:35:56;6.70;;;3.80;;
75096;SDS011;63684;47.964;11.186;2022-12-24T11:38:25;7.80;;;5.00;;
75096;SDS011;63684;47.964;11.186;2022-12-24T11:43:47;3.83;;;2.00;;
75096;SDS011;63684;47.964;11.186;2022-12-24T11:46:16;2.73;;;1.60;;
75096;SDS011;63684;47.964;11.186;2022-12-24T11:48:44;2.57;;;1.70;;
75096;SDS011;63684;47.964;11.186;2022-12-24T11:51:20;3.53;;;2.17;;
75096;SDS011;63684;47.964;11.186;2022-12-24T11:56:51;4.80;;;2.30;;
75096;SDS011;63684;47.964;11.186;2022-12-24T11:59:19;1.23;;;1.07;;
75096;SDS011;63684;47.964;11.186;2022-12-24T12:01:54;5.93;;;3.83;;
75096;SDS011;63684;47.964;11.186;2022-12-24T12:04:24;5.63;;;3.23;;
75096;SDS011;63684;47.964;11.186;2022-12-24T12:06:57;4.70;;;3.07;;
75096;SDS011;63684;47.964;11.186;2022-12-24T12:09:37;8.90;;;5.27;;
75096;SDS011;63684;47.964;11.186;2022-12-24T12:12:10;1.90;;;1.00;;
75096;SDS011;63684;47.964;11.186;2022-12-24T12:14:44;0.93;;;0.60;;
75096;SDS011;63684;47.964;11.186;2022-12-24T12:25:10;1.90;;;1.37;;
75096;SDS011;63684;47.964;11.186;2022-12-24T12:27:43;2.07;;;1.87;;
75096;SDS011;63684;47.964;11.186;2022-12-24T12:30:14;0.70;;;0.70;;
75096;SDS011;63684;47.964;11.186;2022-12-24T12:32:53;0.50;;;0.50;;
75096;SDS011;63684;47.964;11.186;2022-12-24T12:35:24;1.37;;;1.10;;
75096;SDS011;63684;47.964;11.186;2022-12-24T12:37:53;1.13;;;0.63;;
75096;SDS011;63684;47.964;11.186;2022-12-24T12:40:20;1.07;;;0.97;;
75096;SDS011;63684;47.964;11.186;2022-12-24T12:43:04;1.40;;;0.80;;
75096;SDS011;63684;47.964;11.186;2022-12-24T12:45:42;2.00;;;0.60;;
75096;SDS011;63684;47.964;11.186;2022-12-24T12:51:05;0.90;;;0.57;;
75096;SDS011;63684;47.964;11.186;2022-12-24T12:56:28;1.07;;;0.63;;
75096;SDS011;63684;47.964;11.186;2022-12-24T12:59:02;2.67;;;0.50;;
75096;SDS011;63684;47.964;11.186;2022-12-24T13:01:44;2.27;;;0.50;;
75096;SDS011;63684;47.964;11.186;2022-12-24T13:16:23;1.27;;;0.50;;
75096;SDS011;63684;47.964;11.186;2022-12-24T13:19:08;1.30;;;0.50;;
75096;SDS011;63684;47.964;11.186;2022-12-24T13:21:50;1.63;;;0.60;;
75096;SDS011;63684;47.964;11.186;2022-12-24T13:24:17;3.27;;;1.33;;
75096;SDS011;63684;47.964;11.186;2022-12-24T13:26:58;4.27;;;1.90;;
75096;SDS011;63684;47.964;11.186;2022-12-24T13:34:53;1.00;;;0.80;;
75096;SDS011;63684;47.964;11.186;2022-12-24T13:37:21;1.33;;;0.77;;
75096;SDS011;63684;47.964;11.186;2022-12-24T13:50:35;1.00;;;0.53;;
75096;SDS011;63684;47.964;11.186;2022-12-24T13:53:03;2.20;;;0.70;;
75096;SDS011;63684;47.964;11.186;2022-12-24T13:55:29;1.03;;;0.60;;
75096;SDS011;63684;47.964;11.186;2022-12-24T13:58:02;1.37;;;0.53;;
75096;SDS011;63684;47.964;11.186;2022-12-24T14:08:08;0.83;;;0.60;;
75096;SDS011;63684;47.964;11.186;2022-12-24T14:10:39;0.90;;;0.70;;
75096;SDS011;63684;47.964;11.186;2022-12-24T14:16:17;0.43;;;0.40;;
75096;SDS011;63684;47.964;11.186;2022-12-24T14:18:47;1.90;;;0.57;;
75096;SDS011;63684;47.964;11.186;2022-12-24T14:21:23;1.13;;;0.70;;
75096;SDS011;63684;47.964;11.186;2022-12-24T14:26:26;0.83;;;0.53;;
75096;SDS011;63684;47.964;11.186;2022-12-24T14:29:02;0.77;;;0.50;;
75096;SDS011;63684;47.964;11.186;2022-12-24T14:31:31;2.30;;;0.60;;
75096;SDS011;63684;47.964;11.186;2022-12-24T14:34:06;3.57;;;2.33;;
75096;SDS011;63684;47.964;11.186;2022-12-24T14:36:33;1.80;;;0.47;;
75096;SDS011;63684;47.964;11.186;2022-12-24T14:39:00;1.00;;;0.43;;
75096;SDS011;63684;47.964;11.186;2022-12-24T14:41:38;0.63;;;0.50;;
75096;SDS011;63684;47.964;11.186;2022-12-24T14:55:35;1.80;;;0.70;;
75096;SDS011;63684;47.964;11.186;2022-12-24T15:00:58;2.70;;;1.30;;
75096;SDS011;63684;47.964;11.186;2022-12-24T15:03:26;1.70;;;0.70;;
75096;SDS011;63684;47.964;11.186;2022-12-24T15:05:54;1.23;;;0.57;;
75096;SDS011;63684;47.964;11.186;2022-12-24T15:08:26;0.70;;;0.50;;
75096;SDS011;63684;47.964;11.186;2022-12-24T15:10:58;1.20;;;1.10;;
75096;SDS011;63684;47.964;11.186;2022-12-24T15:16:05;3.97;;;2.20;;
75096;SDS011;63684;47.964;11.186;2022-12-24T15:18:33;7.97;;;5.20;;
75096;SDS011;63684;47.964;11.186;2022-12-24T15:21:01;3.70;;;1.90;;
75096;SDS011;63684;47.964;11.186;2022-12-24T15:23:29;1.87;;;1.50;;
75096;SDS011;63684;47.964;11.186;2022-12-24T15:26:05;0.80;;;0.67;;
75096;SDS011;63684;47.964;11.186;2022-12-24T15:28:52;0.80;;;0.60;;
75096;SDS011;63684;47.964;11.186;2022-12-24T15:31:19;1.03;;;0.63;;
75096;SDS011;63684;47.964;11.186;2022-12-24T15:33:46;1.33;;;0.47;;
75096;SDS011;63684;47.964;11.186;2022-12-24T15:36:13;0.40;;;0.40;;
75096;SDS011;63684;47.964;11.186;2022-12-24T15:38:40;1.07;;;0.57;;
75096;SDS011;63684;47.964;11.186;2022-12-24T15:41:15;4.13;;;2.50;;
75096;SDS011;63684;47.964;11.186;2022-12-24T15:43:45;2.33;;;1.33;;
75096;SDS011;63684;47.964;11.186;2022-12-24T15:46:21;1.43;;;1.10;;
75096;SDS011;63684;47.964;11.186;2022-12-24T15:48:52;1.60;;;1.10;;
75096;SDS011;63684;47.964;11.186;2022-12-24T15:51:20;2.53;;;1.00;;
75096;SDS011;63684;47.964;11.186;2022-12-24T15:53:48;0.60;;;0.60;;
75096;SDS011;63684;47.964;11.186;2022-12-24T15:56:37;1.00;;;0.83;;
75096;SDS011;63684;47.964;11.186;2022-12-24T15:59:11;2.87;;;0.93;;
75096;SDS011;63684;47.964;11.186;2022-12-24T16:01:36;3.43;;;1.50;;
75096;SDS011;63684;47.964;11.186;2022-12-24T16:07:00;1.30;;;1.20;;
75096;SDS011;63684;47.964;11.186;2022-12-24T16:09:42;3.60;;;3.03;;
75096;SDS011;63684;47.964;11.186;2022-12-24T16:14:57;7.23;;;5.40;;
75096;SDS011;63684;47.964;11.186;2022-12-24T16:17:25;4.37;;;3.30;;
75096;SDS011;63684;47.964;11.186;2022-12-24T16:19:53;3.10;;;2.47;;
75096;SDS011;63684;47.964;11.186;2022-12-24T16:22:21;5.33;;;2.53;;
75096;SDS011;63684;47.964;11.186;2022-12-24T16:24:56;1.47;;;1.20;;
75096;SDS011;63684;47.964;11.186;2022-12-24T16:27:40;1.53;;;1.07;;
75096;SDS011;63684;47.964;11.186;2022-12-24T16:30:06;1.90;;;1.50;;
75096;SDS011;63684;47.964;11.186;2022-12-24T16:32:34;0.77;;;0.63;;
75096;SDS011;63684;47.964;11.186;2022-12-24T16:35:00;1.13;;;0.80;;
75096;SDS011;63684;47.964;11.186;2022-12-24T16:37:27;3.23;;;0.50;;
75096;SDS011;63684;47.964;11.186;2022-12-24T16:39:52;1.80;;;1.00;;
75096;SDS011;63684;47.964;11.186;2022-12-24T16:42:18;1.50;;;0.73;;
75096;SDS011;63684;47.964;11.186;2022-12-24T16:45:03;2.77;;;1.10;;
75096;SDS011;63684;47.964;11.186;2022-12-24T16:47:32;1.90;;;1.00;;
75096;SDS011;63684;47.964;11.186;2022-12-24T16:49:59;1.07;;;0.80;;
75096;SDS011;63684;47.964;11.186;2022-12-24T16:52:26;1.20;;;0.90;;
75096;SDS011;63684;47.964;11.186;2022-12-24T16:54:53;2.20;;;1.27;;
75096;SDS011;63684;47.964;11.186;2022-12-24T16:57:19;2.17;;;1.10;;
75096;SDS011;63684;47.964;11.186;2022-12-24T16:59:46;1.37;;;1.10;;
75096;SDS011;63684;47.964;11.186;2022-12-24T17:02:12;2.73;;;0.90;;
75096;SDS011;63684;47.964;11.186;2022-12-24T17:04:39;1.50;;;1.20;;